createdAt,value
2019-04-21T00:00:26.077Z,12.66
2019-04-21T00:01:26.407Z,12.73
2019-04-21T00:02:31.997Z,12.59
2019-04-21T00:03:34.070Z,12.61
2019-04-21T00:04:40.804Z,12.58
2019-04-21T00:05:46.770Z,12.59
2019-04-21T00:06:48.174Z,12.54
2019-04-21T00:07:43.459Z,12.51
2019-04-21T00:09:03.819Z,12.48
2019-04-21T00:09:52.354Z,12.48
2019-04-21T00:10:48.493Z,12.54
2019-04-21T00:11:53.985Z,12.49
2019-04-21T00:12:40.522Z,12.49
2019-04-21T00:13:42.746Z,12.43
2019-04-21T00:14:42.408Z,12.33
2019-04-21T00:15:34.551Z,12.33
2019-04-21T00:16:34.719Z,12.34
2019-04-21T00:17:27.029Z,12.37
2019-04-21T00:18:25.403Z,12.18
2019-04-21T00:19:28.456Z,12.23
2019-04-21T00:20:33.111Z,12.13
2019-04-21T00:21:35.957Z,12.23
2019-04-21T00:22:40.518Z,12.13
2019-04-21T00:23:41.138Z,11.97
2019-04-21T00:24:43.489Z,12.00
2019-04-21T00:25:38.734Z,12.03
2019-04-21T00:26:45.870Z,11.96
2019-04-21T00:27:44.018Z,11.90
2019-04-21T00:28:49.113Z,11.93
2019-04-21T00:29:45.731Z,11.93
2019-04-21T00:30:44.228Z,11.88
2019-04-21T00:31:41.949Z,11.97
2019-04-21T00:32:39.217Z,11.93
2019-04-21T00:33:29.945Z,11.90
2019-04-21T00:34:25.778Z,11.90
2019-04-21T00:35:26.506Z,11.97
2019-04-21T00:36:33.423Z,11.98
2019-04-21T00:37:47.000Z,11.84
2019-04-21T00:38:59.110Z,11.94
2019-04-21T00:40:05.764Z,11.90
2019-04-21T00:40:50.522Z,11.82
2019-04-21T00:41:48.569Z,11.84
2019-04-21T00:42:43.104Z,11.75
2019-04-21T00:43:42.622Z,11.81
2019-04-21T00:44:36.366Z,11.78
2019-04-21T00:45:41.218Z,11.77
2019-04-21T00:46:40.312Z,11.74
2019-04-21T00:47:38.783Z,11.69
2019-04-21T00:48:49.764Z,11.66
2019-04-21T00:49:43.523Z,11.63
2019-04-21T00:51:03.502Z,11.66
2019-04-21T00:51:54.149Z,11.69
2019-04-21T00:52:52.586Z,11.64
2019-04-21T00:53:51.585Z,11.59
2019-04-21T00:55:05.826Z,11.51
2019-04-21T00:56:49.759Z,11.51
2019-04-21T00:57:51.942Z,11.49
2019-04-21T00:58:48.664Z,11.41
2019-04-21T00:59:46.335Z,11.35
2019-04-21T01:00:46.234Z,11.41
2019-04-21T01:01:46.075Z,11.36
2019-04-21T01:02:53.347Z,11.28
2019-04-21T01:03:52.977Z,11.27
2019-04-21T01:04:49.527Z,11.27
2019-04-21T01:05:52.830Z,11.16
2019-04-21T01:06:48.043Z,11.26
2019-04-21T01:07:45.539Z,11.23
2019-04-21T01:08:47.341Z,11.17
2019-04-21T01:09:42.327Z,11.13
2019-04-21T01:10:38.361Z,11.16
2019-04-21T01:11:51.849Z,11.19
2019-04-21T01:12:53.181Z,11.05
2019-04-21T01:13:54.673Z,11.05
2019-04-21T01:14:51.705Z,10.93
2019-04-21T01:15:51.520Z,11.03
2019-04-21T01:16:45.317Z,11.03
2019-04-21T01:17:48.137Z,11.01
2019-04-21T01:18:44.544Z,11.01
2019-04-21T01:19:41.158Z,11.03
2019-04-21T01:20:25.041Z,11.01
2019-04-21T01:21:24.064Z,10.99
2019-04-21T01:22:24.025Z,10.87
2019-04-21T01:23:25.482Z,10.86
2019-04-21T01:24:30.747Z,10.87
2019-04-21T01:25:33.102Z,10.88
2019-04-21T01:26:39.363Z,10.81
2019-04-21T01:27:48.320Z,10.86
2019-04-21T01:28:39.821Z,10.84
2019-04-21T01:29:45.849Z,10.78
2019-04-21T01:30:50.347Z,10.83
2019-04-21T01:31:41.619Z,10.78
2019-04-21T01:32:51.251Z,10.78
2019-04-21T01:33:44.715Z,10.69
2019-04-21T01:34:45.088Z,10.68
2019-04-21T01:35:44.098Z,10.70
2019-04-21T01:36:46.156Z,10.70
2019-04-21T01:37:52.847Z,10.73
2019-04-21T01:38:48.175Z,10.68
2019-04-21T01:39:47.534Z,10.63
2019-04-21T01:40:47.647Z,10.63
2019-04-21T01:41:47.344Z,10.63
2019-04-21T01:42:45.493Z,10.66
2019-04-21T01:43:47.761Z,10.63
2019-04-21T01:44:46.215Z,10.55
2019-04-21T01:45:43.505Z,10.55
2019-04-21T01:46:40.866Z,10.54
2019-04-21T01:47:44.908Z,10.47
2019-04-21T01:48:40.321Z,10.43
2019-04-21T01:49:39.518Z,10.46
2019-04-21T01:50:42.866Z,10.38
2019-04-21T01:51:59.679Z,10.32
2019-04-21T01:52:53.134Z,10.34
2019-04-21T01:53:48.885Z,10.38
2019-04-21T01:54:48.242Z,10.34
2019-04-21T01:55:43.141Z,10.28
2019-04-21T01:56:44.820Z,10.25
2019-04-21T01:57:45.277Z,10.34
2019-04-21T01:58:36.330Z,10.28
2019-04-21T01:59:39.576Z,10.17
2019-04-21T02:00:40.853Z,10.17
2019-04-21T02:01:45.835Z,10.16
2019-04-21T02:02:43.310Z,10.11
2019-04-21T02:04:54.287Z,10.14
2019-04-21T02:05:51.982Z,10.06
2019-04-21T02:06:45.630Z,9.99
2019-04-21T02:07:44.515Z,10.11
2019-04-21T02:08:41.487Z,10.14
2019-04-21T02:09:46.354Z,10.10
2019-04-21T02:10:53.030Z,10.07
2019-04-21T02:11:50.267Z,10.09
2019-04-21T02:12:46.028Z,9.99
2019-04-21T02:13:53.759Z,9.93
2019-04-21T02:14:50.495Z,9.92
2019-04-21T02:15:48.943Z,9.96
2019-04-21T02:16:47.502Z,9.95
2019-04-21T02:17:47.041Z,9.96
2019-04-21T02:18:43.777Z,9.92
2019-04-21T02:19:37.818Z,9.93
2019-04-21T02:20:38.324Z,9.96
2019-04-21T02:21:39.340Z,9.96
2019-04-21T02:22:59.138Z,9.95
2019-04-21T02:24:05.425Z,9.86
2019-04-21T02:24:51.904Z,9.85
2019-04-21T02:25:44.533Z,9.91
2019-04-21T02:26:47.106Z,9.88
2019-04-21T02:27:55.086Z,9.77
2019-04-21T02:28:49.838Z,9.77
2019-04-21T02:29:48.751Z,9.81
2019-04-21T02:31:04.878Z,9.75
2019-04-21T02:31:57.234Z,9.70
2019-04-21T02:33:02.943Z,9.74
2019-04-21T02:34:11.366Z,9.63
2019-04-21T02:34:59.905Z,9.63
2019-04-21T02:36:04.842Z,9.67
2019-04-21T02:37:05.215Z,9.60
2019-04-21T02:39:06.165Z,9.60
2019-04-21T02:40:04.374Z,9.71
2019-04-21T02:41:56.135Z,9.56
2019-04-21T02:44:02.445Z,9.55
2019-04-21T02:44:51.427Z,9.50
2019-04-21T02:45:56.159Z,9.52
2019-04-21T02:46:50.466Z,9.52
2019-04-21T02:48:04.026Z,9.50
2019-04-21T02:49:13.012Z,9.48
2019-04-21T02:50:00.262Z,9.45
2019-04-21T02:52:13.753Z,9.52
2019-04-21T02:52:57.007Z,9.52
2019-04-21T02:54:53.942Z,9.34
2019-04-21T02:55:50.819Z,9.41
2019-04-21T02:58:01.979Z,9.34
2019-04-21T02:59:58.298Z,9.27
2019-04-21T03:00:55.594Z,9.22
2019-04-21T03:01:55.882Z,9.32
2019-04-21T03:02:55.033Z,9.22
2019-04-21T03:03:55.007Z,9.23
2019-04-21T03:04:53.111Z,9.17
2019-04-21T03:07:01.590Z,9.20
2019-04-21T03:09:54.437Z,9.16
2019-04-21T03:10:59.300Z,9.13
2019-04-21T03:11:57.958Z,9.16
2019-04-21T03:12:53.084Z,9.17
2019-04-21T03:14:00.686Z,9.16
2019-04-21T03:15:59.836Z,9.10
2019-04-21T03:16:47.088Z,9.04
2019-04-21T03:17:56.833Z,9.13
2019-04-21T03:18:57.154Z,9.00
2019-04-21T03:20:10.537Z,9.03
2019-04-21T03:21:00.608Z,8.98
2019-04-21T03:21:57.480Z,9.03
2019-04-21T03:23:00.326Z,9.06
2019-04-21T03:23:57.392Z,9.03
2019-04-21T03:25:52.209Z,9.00
2019-04-21T03:28:56.346Z,8.89
2019-04-21T03:30:21.545Z,8.88
2019-04-21T03:31:24.986Z,8.71
2019-04-21T03:32:14.354Z,8.83
2019-04-21T03:33:23.638Z,8.76
2019-04-21T03:34:28.924Z,8.76
2019-04-21T03:38:00.248Z,8.76
2019-04-21T03:38:53.247Z,8.73
2019-04-21T03:40:07.933Z,8.75
2019-04-21T03:40:53.131Z,8.65
2019-04-21T03:42:01.983Z,8.71
2019-04-21T03:44:02.078Z,8.55
2019-04-21T03:44:56.916Z,8.63
2019-04-21T03:45:49.271Z,8.61
2019-04-21T03:46:55.695Z,8.54
2019-04-21T03:47:53.232Z,8.47
2019-04-21T03:49:04.725Z,8.55
2019-04-21T03:50:49.426Z,8.50
2019-04-21T03:51:57.390Z,8.40
2019-04-21T03:53:55.803Z,8.50
2019-04-21T03:55:07.045Z,8.45
2019-04-21T03:55:54.193Z,8.49
2019-04-21T03:58:19.536Z,8.40
2019-04-21T03:59:01.937Z,8.46
2019-04-21T03:59:55.696Z,8.42
2019-04-21T04:01:02.897Z,8.39
2019-04-21T04:02:03.839Z,8.45
2019-04-21T04:03:13.432Z,8.43
2019-04-21T04:04:53.106Z,8.37
2019-04-21T04:06:09.587Z,8.32
2019-04-21T04:07:06.009Z,8.28
2019-04-21T04:07:59.117Z,8.39
2019-04-21T04:08:57.793Z,8.25
2019-04-21T04:10:07.804Z,8.28
2019-04-21T04:11:04.620Z,8.34
2019-04-21T04:11:50.492Z,8.37
2019-04-21T04:13:01.422Z,8.22
2019-04-21T04:14:07.919Z,8.31
2019-04-21T04:17:14.560Z,8.22
2019-04-21T04:20:51.235Z,8.14
2019-04-21T04:22:59.049Z,8.14
2019-04-21T04:24:57.891Z,8.24
2019-04-21T04:25:49.806Z,8.14
2019-04-21T04:26:57.056Z,8.10
2019-04-21T04:28:10.222Z,8.17
2019-04-21T04:28:56.320Z,8.17
2019-04-21T04:29:59.323Z,8.13
2019-04-21T04:30:52.425Z,8.10
2019-04-21T04:31:53.169Z,8.10
2019-04-21T04:32:46.801Z,8.10
2019-04-21T04:34:57.270Z,7.95
2019-04-21T04:36:01.384Z,8.03
2019-04-21T04:38:00.935Z,8.04
2019-04-21T04:39:02.314Z,8.06
2019-04-21T04:40:59.817Z,8.04
2019-04-21T04:42:12.652Z,8.06
2019-04-21T04:44:03.272Z,7.99
2019-04-21T04:47:05.524Z,8.03
2019-04-21T04:48:09.096Z,7.89
2019-04-21T04:49:06.089Z,8.02
2019-04-21T04:50:53.588Z,7.88
2019-04-21T04:52:09.408Z,7.89
2019-04-21T04:53:48.305Z,7.92
2019-04-21T04:54:55.817Z,8.00
2019-04-21T04:56:57.319Z,7.84
2019-04-21T04:59:18.606Z,7.81
2019-04-21T05:00:01.724Z,7.79
2019-04-21T05:01:59.698Z,7.91
2019-04-21T05:02:56.413Z,7.92
2019-04-21T05:04:05.967Z,7.92
2019-04-21T05:06:04.896Z,7.89
2019-04-21T05:06:05.156Z,7.92
2019-04-21T05:07:00.060Z,7.86
2019-04-21T05:07:57.278Z,7.86
2019-04-21T05:09:57.682Z,7.92
2019-04-21T05:11:50.880Z,7.91
2019-04-21T05:12:53.309Z,7.92
2019-04-21T05:13:57.166Z,7.86
2019-04-21T05:14:57.074Z,7.92
2019-04-21T05:15:53.259Z,7.96
2019-04-21T05:17:52.463Z,7.95
2019-04-21T05:19:06.514Z,7.99
2019-04-21T05:20:05.461Z,7.96
2019-04-21T05:20:53.344Z,8.00
2019-04-21T05:21:48.370Z,8.03
2019-04-21T05:22:49.646Z,7.96
2019-04-21T05:23:44.245Z,7.96
2019-04-21T05:24:40.332Z,8.00
2019-04-21T05:25:37.896Z,7.99
2019-04-21T05:26:39.203Z,7.92
2019-04-21T05:27:39.685Z,8.02
2019-04-21T05:28:39.648Z,8.10
2019-04-21T05:29:49.276Z,8.09
2019-04-21T05:30:50.835Z,8.07
2019-04-21T05:32:45.218Z,8.12
2019-04-21T05:33:47.809Z,8.13
2019-04-21T05:34:42.947Z,8.13
2019-04-21T05:35:47.387Z,8.17
2019-04-21T05:36:45.931Z,8.27
2019-04-21T05:37:43.279Z,8.28
2019-04-21T05:38:42.334Z,8.27
2019-04-21T05:39:40.712Z,8.18
2019-04-21T05:40:37.326Z,8.21
2019-04-21T05:41:37.228Z,8.29
2019-04-21T05:42:39.642Z,8.31
2019-04-21T05:43:38.992Z,8.31
2019-04-21T05:44:52.785Z,8.28
2019-04-21T05:45:47.741Z,8.37
2019-04-21T05:46:49.572Z,8.46
2019-04-21T05:47:46.265Z,8.39
2019-04-21T05:48:45.740Z,8.36
2019-04-21T05:49:40.077Z,8.42
2019-04-21T05:50:40.285Z,8.50
2019-04-21T05:51:42.767Z,8.40
2019-04-21T05:52:38.187Z,8.43
2019-04-21T05:53:41.249Z,8.54
2019-04-21T05:54:52.675Z,8.55
2019-04-21T05:56:42.396Z,8.47
2019-04-21T05:57:53.306Z,8.50
2019-04-21T05:58:46.552Z,8.60
2019-04-21T05:59:43.731Z,8.57
2019-04-21T06:01:46.374Z,8.58
2019-04-21T06:02:51.986Z,8.61
2019-04-21T06:05:51.107Z,8.73
2019-04-21T06:06:48.418Z,8.85
2019-04-21T06:07:41.271Z,8.83
2019-04-21T06:08:46.890Z,8.91
2019-04-21T06:09:52.375Z,8.89
2019-04-21T06:10:47.500Z,8.89
2019-04-21T06:11:42.378Z,8.88
2019-04-21T06:12:51.043Z,8.94
2019-04-21T06:13:48.215Z,8.93
2019-04-21T06:14:48.272Z,8.96
2019-04-21T06:15:50.031Z,8.96
2019-04-21T06:16:54.470Z,9.03
2019-04-21T06:17:54.915Z,8.97
2019-04-21T06:18:47.988Z,9.01
2019-04-21T06:19:50.301Z,9.08
2019-04-21T06:20:51.816Z,9.00
2019-04-21T06:21:45.199Z,9.03
2019-04-21T06:22:46.292Z,9.04
2019-04-21T06:23:42.004Z,8.98
2019-04-21T06:24:54.661Z,9.15
2019-04-21T06:25:55.625Z,9.13
2019-04-21T06:26:59.255Z,9.15
2019-04-21T06:27:44.364Z,9.16
2019-04-21T06:28:45.327Z,9.17
2019-04-21T06:29:44.145Z,9.16
2019-04-21T06:30:53.014Z,9.22
2019-04-21T06:32:12.776Z,9.20
2019-04-21T06:32:52.195Z,9.15
2019-04-21T06:33:44.690Z,9.27
2019-04-21T06:35:01.913Z,9.20
2019-04-21T06:36:09.006Z,9.35
2019-04-21T06:36:47.508Z,9.34
2019-04-21T06:40:48.306Z,9.40
2019-04-21T06:41:39.745Z,9.41
2019-04-21T06:42:54.014Z,9.44
2019-04-21T06:43:48.577Z,9.44
2019-04-21T06:44:54.563Z,9.55
2019-04-21T06:45:47.287Z,9.58
2019-04-21T06:46:40.433Z,9.65
2019-04-21T06:48:53.816Z,9.67
2019-04-21T06:49:45.642Z,9.70
2019-04-21T06:50:51.047Z,9.75
2019-04-21T06:51:43.582Z,9.80
2019-04-21T06:53:54.258Z,9.91
2019-04-21T06:54:49.451Z,9.92
2019-04-21T06:55:44.191Z,9.96
2019-04-21T06:56:48.285Z,10.10
2019-04-21T06:57:49.827Z,10.13
2019-04-21T06:58:45.037Z,10.22
2019-04-21T06:59:38.517Z,10.29
2019-04-21T07:00:41.117Z,10.36
2019-04-21T07:02:08.299Z,10.31
2019-04-21T07:03:49.330Z,10.52
2019-04-21T07:04:43.390Z,10.55
2019-04-21T07:05:52.447Z,10.51
2019-04-21T07:07:51.886Z,10.68
2019-04-21T07:08:56.617Z,10.68
2019-04-21T07:09:48.278Z,10.72
2019-04-21T07:10:46.459Z,10.72
2019-04-21T07:11:44.088Z,10.73
2019-04-21T07:12:39.285Z,10.83
2019-04-21T07:13:36.558Z,10.81
2019-04-21T07:14:58.941Z,10.91
2019-04-21T07:15:47.060Z,10.93
2019-04-21T07:16:45.261Z,11.01
2019-04-21T07:17:38.730Z,10.98
2019-04-21T07:18:51.247Z,11.03
2019-04-21T07:19:49.733Z,11.09
2019-04-21T07:20:46.227Z,11.19
2019-04-21T07:21:45.445Z,11.19
2019-04-21T07:22:46.051Z,11.26
2019-04-21T07:23:47.511Z,11.21
2019-04-21T07:24:42.807Z,11.31
2019-04-21T07:25:45.850Z,11.35
2019-04-21T07:26:42.707Z,11.44
2019-04-21T07:27:49.065Z,11.33
2019-04-21T07:28:47.831Z,11.44
2019-04-21T07:29:47.464Z,11.42
2019-04-21T07:30:44.235Z,11.57
2019-04-21T07:31:47.281Z,11.57
2019-04-21T07:32:51.454Z,11.64
2019-04-21T07:33:55.332Z,11.74
2019-04-21T07:34:48.062Z,11.66
2019-04-21T07:35:43.311Z,11.69
2019-04-21T07:36:52.516Z,11.78
2019-04-21T07:37:46.198Z,11.85
2019-04-21T07:38:39.981Z,11.84
2019-04-21T07:39:42.155Z,11.87
2019-04-21T07:40:36.322Z,11.79
2019-04-21T07:41:38.802Z,11.96
2019-04-21T07:42:38.024Z,11.88
2019-04-21T07:43:39.894Z,12.01
2019-04-21T07:44:35.037Z,12.03
2019-04-21T07:45:36.658Z,12.11
2019-04-21T07:46:33.902Z,12.11
2019-04-21T07:47:44.803Z,12.19
2019-04-21T07:48:44.558Z,12.13
2019-04-21T07:49:46.439Z,12.30
2019-04-21T07:50:40.264Z,12.30
2019-04-21T07:51:49.068Z,12.44
2019-04-21T07:52:47.014Z,12.48
2019-04-21T07:53:52.622Z,12.52
2019-04-21T07:54:44.795Z,12.48
2019-04-21T07:56:28.380Z,12.66
2019-04-21T07:57:37.698Z,12.69
2019-04-21T07:58:47.595Z,12.79
2019-04-21T07:59:52.249Z,12.87
2019-04-21T08:00:51.075Z,12.94
2019-04-21T08:01:48.369Z,12.94
2019-04-21T08:02:46.295Z,13.06
2019-04-21T08:03:39.894Z,13.07
2019-04-21T08:04:57.164Z,13.12
2019-04-21T08:05:58.645Z,13.21
2019-04-21T08:06:40.845Z,13.28
2019-04-21T08:09:57.006Z,13.51
2019-04-21T08:10:58.462Z,13.47
2019-04-21T08:11:51.826Z,13.55
2019-04-21T08:12:55.713Z,13.57
2019-04-21T08:13:57.909Z,13.63
2019-04-21T08:15:14.588Z,13.66
2019-04-21T08:15:57.789Z,13.65
2019-04-21T08:18:00.306Z,13.63
2019-04-21T08:18:59.859Z,13.69
2019-04-21T08:19:53.089Z,13.69
2019-04-21T08:21:02.347Z,13.80
2019-04-21T08:22:09.539Z,13.81
2019-04-21T08:22:58.909Z,13.91
2019-04-21T08:23:54.229Z,13.96
2019-04-21T08:25:03.227Z,14.06
2019-04-21T08:27:04.929Z,14.24
2019-04-21T08:28:01.148Z,14.31
2019-04-21T08:29:08.113Z,14.34
2019-04-21T08:29:58.289Z,14.36
2019-04-21T08:31:01.224Z,14.36
2019-04-21T08:32:16.046Z,14.30
2019-04-21T08:33:08.747Z,14.35
2019-04-21T08:34:05.520Z,14.30
2019-04-21T08:35:22.199Z,14.46
2019-04-21T08:37:02.305Z,14.46
2019-04-21T08:38:05.324Z,14.42
2019-04-21T08:39:01.652Z,14.52
2019-04-21T08:40:13.323Z,14.60
2019-04-21T08:41:01.929Z,14.64
2019-04-21T08:41:57.158Z,14.74
2019-04-21T08:42:58.189Z,14.69
2019-04-21T08:43:57.856Z,14.85
2019-04-21T08:45:03.881Z,14.78
2019-04-21T08:46:00.451Z,14.82
2019-04-21T08:47:02.633Z,14.95
2019-04-21T08:47:58.241Z,14.98
2019-04-21T08:49:00.815Z,15.07
2019-04-21T08:50:00.732Z,15.11
2019-04-21T08:51:16.744Z,15.18
2019-04-21T08:52:21.348Z,15.13
2019-04-21T08:53:00.783Z,15.19
2019-04-21T08:54:02.598Z,15.25
2019-04-21T08:55:05.655Z,15.33
2019-04-21T08:56:03.228Z,15.40
2019-04-21T08:57:01.152Z,15.37
2019-04-21T08:58:08.505Z,15.41
2019-04-21T08:59:03.891Z,15.48
2019-04-21T09:00:00.037Z,15.44
2019-04-21T09:01:01.130Z,15.53
2019-04-21T09:02:02.533Z,15.64
2019-04-21T09:03:01.773Z,15.68
2019-04-21T09:03:58.870Z,15.77
2019-04-21T09:04:59.825Z,15.78
2019-04-21T09:05:59.749Z,15.86
2019-04-21T09:08:01.776Z,15.84
2019-04-21T09:08:58.625Z,15.92
2019-04-21T09:09:57.535Z,15.96
2019-04-21T09:10:59.661Z,16.03
2019-04-21T09:11:59.707Z,16.10
2019-04-21T09:12:58.877Z,16.13
2019-04-21T09:13:57.535Z,16.17
2019-04-21T09:15:01.255Z,16.14
2019-04-21T09:15:52.490Z,16.22
2019-04-21T09:16:53.423Z,16.11
2019-04-21T09:17:50.233Z,16.16
2019-04-21T09:18:50.009Z,16.29
2019-04-21T09:20:59.928Z,16.40
2019-04-21T09:22:13.377Z,16.50
2019-04-21T09:23:00.796Z,16.45
2019-04-21T09:23:56.315Z,16.54
2019-04-21T09:25:00.300Z,16.63
2019-04-21T09:25:57.512Z,16.66
2019-04-21T09:27:01.491Z,16.88
2019-04-21T09:27:55.030Z,16.88
2019-04-21T09:28:52.204Z,17.00
2019-04-21T09:29:47.943Z,16.96
2019-04-21T09:30:46.673Z,17.06
2019-04-21T09:31:42.851Z,17.06
2019-04-21T09:32:40.366Z,17.17
2019-04-21T09:33:46.713Z,17.21
2019-04-21T09:34:43.562Z,17.27
2019-04-21T09:35:41.639Z,17.42
2019-04-21T09:36:46.744Z,17.43
2019-04-21T09:37:48.969Z,17.42
2019-04-21T09:38:42.443Z,17.55
2019-04-21T09:39:43.915Z,17.57
2019-04-21T09:40:44.131Z,17.74
2019-04-21T09:41:40.975Z,17.81
2019-04-21T09:42:45.583Z,17.91
2019-04-21T09:43:45.302Z,17.96
2019-04-21T09:44:42.539Z,18.09
2019-04-21T09:45:39.086Z,18.21
2019-04-21T09:46:47.523Z,18.13
2019-04-21T09:47:47.081Z,18.25
2019-04-21T09:48:49.852Z,18.26
2019-04-21T09:49:40.081Z,18.34
2019-04-21T09:50:39.616Z,18.42
2019-04-21T09:51:39.330Z,18.42
2019-04-21T09:52:46.737Z,18.51
2019-04-21T09:53:42.257Z,18.60
2019-04-21T09:54:48.251Z,18.57
2019-04-21T09:55:46.538Z,18.68
2019-04-21T09:56:47.302Z,18.66
2019-04-21T09:57:47.721Z,18.72
2019-04-21T09:58:45.762Z,18.79
2019-04-21T09:59:42.167Z,18.79
2019-04-21T10:00:49.884Z,18.86
2019-04-21T10:01:55.992Z,18.94
2019-04-21T10:02:47.041Z,18.89
2019-04-21T10:03:44.554Z,18.93
2019-04-21T10:04:39.966Z,18.87
2019-04-21T10:05:38.411Z,18.91
2019-04-21T10:06:37.861Z,19.05
2019-04-21T10:07:41.986Z,19.21
2019-04-21T10:08:38.842Z,19.30
2019-04-21T10:09:37.842Z,19.27
2019-04-21T10:10:38.337Z,19.21
2019-04-21T10:11:37.808Z,19.35
2019-04-21T10:12:37.799Z,19.42
2019-04-21T10:13:37.788Z,19.43
2019-04-21T10:14:38.817Z,19.52
2019-04-21T10:15:37.768Z,19.65
2019-04-21T10:16:38.598Z,19.79
2019-04-21T10:17:37.746Z,19.72
2019-04-21T10:18:37.983Z,19.76
2019-04-21T10:19:37.745Z,19.94
2019-04-21T10:20:38.543Z,19.92
2019-04-21T10:21:38.092Z,20.10
2019-04-21T10:22:39.211Z,20.13
2019-04-21T10:23:37.686Z,20.16
2019-04-21T10:24:38.341Z,20.17
2019-04-21T10:25:38.719Z,20.33
2019-04-21T10:26:37.672Z,20.38
2019-04-21T10:27:39.116Z,20.50
2019-04-21T10:28:37.631Z,20.41
2019-04-21T10:29:41.468Z,20.44
2019-04-21T10:30:38.609Z,20.54
2019-04-21T10:31:38.736Z,20.56
2019-04-21T10:32:38.582Z,20.61
2019-04-21T10:33:37.577Z,20.66
2019-04-21T10:34:37.839Z,20.73
2019-04-21T10:35:37.558Z,20.81
2019-04-21T10:36:37.546Z,20.72
2019-04-21T10:37:50.808Z,20.73
2019-04-21T10:38:46.066Z,20.76
2019-04-21T10:39:39.666Z,20.85
2019-04-21T10:40:37.502Z,20.87
2019-04-21T10:41:37.494Z,20.93
2019-04-21T10:42:37.480Z,20.90
2019-04-21T10:43:37.578Z,21.01
2019-04-21T10:44:38.611Z,21.00
2019-04-21T10:45:37.459Z,20.85
2019-04-21T10:46:38.153Z,21.00
2019-04-21T10:47:38.791Z,21.08
2019-04-21T10:48:38.266Z,21.13
2019-04-21T10:49:37.422Z,21.27
2019-04-21T10:50:37.400Z,21.28
2019-04-21T10:51:37.385Z,21.31
2019-04-21T10:52:37.408Z,21.46
2019-04-21T10:53:38.595Z,21.49
2019-04-21T10:55:01.756Z,21.46
2019-04-21T10:55:54.295Z,21.40
2019-04-21T10:56:43.264Z,21.59
2019-04-21T10:57:38.323Z,21.46
2019-04-21T10:58:38.291Z,21.56
2019-04-21T10:59:37.299Z,21.61
2019-04-21T11:00:37.302Z,21.73
2019-04-21T11:01:37.336Z,21.75
2019-04-21T11:02:37.269Z,21.77
2019-04-21T11:03:38.344Z,21.89
2019-04-21T11:04:39.085Z,21.86
2019-04-21T11:05:38.778Z,21.98
2019-04-21T11:06:37.229Z,21.98
2019-04-21T11:07:53.001Z,22.06
2019-04-21T11:08:43.342Z,22.06
2019-04-21T11:09:38.199Z,22.09
2019-04-21T11:10:38.173Z,22.14
2019-04-21T11:11:37.680Z,22.23
2019-04-21T11:12:39.290Z,22.30
2019-04-21T11:13:37.152Z,22.31
2019-04-21T11:14:37.142Z,22.27
2019-04-21T11:15:37.146Z,22.24
2019-04-21T11:16:37.295Z,22.27
2019-04-21T11:17:37.114Z,22.39
2019-04-21T11:18:37.795Z,22.41
2019-04-21T11:19:37.089Z,22.36
2019-04-21T11:20:37.229Z,22.45
2019-04-21T11:21:37.068Z,22.41
2019-04-21T11:22:38.890Z,22.56
2019-04-21T11:23:37.518Z,22.52
2019-04-21T11:24:37.040Z,22.48
2019-04-21T11:25:37.804Z,22.57
2019-04-21T11:26:37.901Z,22.69
2019-04-21T11:27:37.321Z,22.70
2019-04-21T11:28:37.018Z,22.82
2019-04-21T11:29:37.200Z,23.00
2019-04-21T11:30:38.014Z,22.91
2019-04-21T11:31:36.979Z,23.11
2019-04-21T11:32:37.119Z,23.12
2019-04-21T11:33:37.589Z,23.06
2019-04-21T11:34:36.931Z,23.03
2019-04-21T11:35:37.203Z,23.18
2019-04-21T11:36:37.504Z,23.25
2019-04-21T11:37:37.853Z,23.26
2019-04-21T11:38:54.266Z,23.42
2019-04-21T11:39:45.775Z,23.32
2019-04-21T11:40:38.088Z,23.52
2019-04-21T11:41:36.856Z,23.47
2019-04-21T11:42:37.799Z,23.57
2019-04-21T11:43:37.081Z,23.57
2019-04-21T11:44:37.320Z,23.56
2019-04-21T11:45:36.820Z,23.49
2019-04-21T11:46:38.271Z,23.56
2019-04-21T11:47:36.791Z,23.63
2019-04-21T11:48:36.781Z,23.63
2019-04-21T11:49:37.053Z,23.69
2019-04-21T11:50:37.135Z,23.74
2019-04-21T11:51:37.412Z,23.84
2019-04-21T11:52:36.953Z,23.89
2019-04-21T11:53:37.029Z,23.96
2019-04-21T11:54:37.080Z,24.00
2019-04-21T11:55:39.529Z,24.12
2019-04-21T11:56:38.885Z,24.26
2019-04-21T11:57:42.707Z,24.36
2019-04-21T11:58:37.678Z,24.42
2019-04-21T11:59:37.608Z,24.60
2019-04-21T12:00:37.728Z,24.67
2019-04-21T12:01:36.652Z,24.84
2019-04-21T12:02:37.382Z,24.93
2019-04-21T12:03:37.752Z,24.93
2019-04-21T12:04:36.651Z,24.92
2019-04-21T12:05:37.290Z,24.93
2019-04-21T12:06:43.126Z,25.09
2019-04-21T12:07:37.725Z,25.19
2019-04-21T12:08:42.191Z,25.38
2019-04-21T12:09:37.764Z,25.48
2019-04-21T12:10:37.638Z,25.63
2019-04-21T12:11:36.552Z,25.75
2019-04-21T12:12:37.159Z,25.94
2019-04-21T12:13:36.521Z,26.17
2019-04-21T12:14:36.615Z,26.38
2019-04-21T12:15:36.823Z,26.54
2019-04-21T12:16:37.026Z,26.87
2019-04-21T12:17:36.484Z,27.42
2019-04-21T12:18:36.811Z,28.14
2019-04-21T12:19:36.834Z,29.08
2019-04-21T12:20:37.634Z,30.04
2019-04-21T12:21:49.151Z,30.76
2019-04-21T12:22:37.516Z,31.35
2019-04-21T12:23:36.514Z,32.34
2019-04-21T12:24:37.985Z,32.96
2019-04-21T12:25:36.844Z,34.06
2019-04-21T12:26:36.400Z,35.28
2019-04-21T12:27:36.382Z,36.05
2019-04-21T12:28:37.537Z,36.06
2019-04-21T12:29:37.707Z,37.18
2019-04-21T12:30:37.675Z,38.14
2019-04-21T12:31:36.357Z,39.14
2019-04-21T12:32:36.335Z,39.99
2019-04-21T12:33:36.365Z,40.91
2019-04-21T12:34:36.324Z,41.63
2019-04-21T12:35:37.693Z,42.50
2019-04-21T12:36:36.317Z,43.49
2019-04-21T12:37:37.174Z,44.46
2019-04-21T12:38:46.573Z,45.13
2019-04-21T12:39:38.662Z,46.02
2019-04-21T12:40:36.736Z,46.80
2019-04-21T12:41:36.410Z,47.25
2019-04-21T12:42:38.828Z,47.88
2019-04-21T12:43:36.967Z,48.02
2019-04-21T12:44:37.170Z,48.16
2019-04-21T12:45:36.219Z,48.36
2019-04-21T12:46:36.332Z,48.57
2019-04-21T12:47:37.699Z,48.94
2019-04-21T12:48:37.920Z,49.49
2019-04-21T12:49:36.297Z,49.44
2019-04-21T12:50:36.322Z,49.56
2019-04-21T12:51:37.586Z,49.58
2019-04-21T12:52:37.712Z,49.44
2019-04-21T12:53:36.251Z,49.56
2019-04-21T12:54:37.524Z,49.77
2019-04-21T12:55:40.545Z,49.94
2019-04-21T12:56:37.935Z,50.31
2019-04-21T12:57:37.220Z,50.70
2019-04-21T12:58:37.337Z,51.08
2019-04-21T12:59:37.662Z,51.01
2019-04-21T13:00:36.753Z,51.15
2019-04-21T13:01:37.020Z,51.45
2019-04-21T13:02:36.107Z,51.52
2019-04-21T13:03:37.526Z,51.82
2019-04-21T13:04:36.070Z,52.04
2019-04-21T13:05:36.062Z,52.22
2019-04-21T13:06:37.262Z,52.69
2019-04-21T13:07:37.340Z,52.80
2019-04-21T13:08:45.682Z,52.75
2019-04-21T13:09:37.546Z,52.68
2019-04-21T13:10:36.059Z,52.98
2019-04-21T13:11:37.148Z,52.96
2019-04-21T13:12:36.025Z,52.95
2019-04-21T13:13:36.007Z,52.94
2019-04-21T13:14:35.998Z,52.87
2019-04-21T13:15:35.994Z,52.94
2019-04-21T13:16:37.078Z,53.06
2019-04-21T13:17:37.265Z,53.11
2019-04-21T13:18:37.381Z,53.23
2019-04-21T13:19:35.965Z,53.59
2019-04-21T13:20:36.006Z,53.77
2019-04-21T13:21:36.177Z,53.91
2019-04-21T13:22:36.036Z,53.84
2019-04-21T13:23:36.995Z,54.02
2019-04-21T13:24:36.049Z,53.62
2019-04-21T13:25:36.041Z,53.07
2019-04-21T13:26:42.864Z,53.04
2019-04-21T13:27:36.931Z,53.31
2019-04-21T13:28:35.909Z,53.92
2019-04-21T13:29:36.428Z,54.40
2019-04-21T13:30:36.253Z,54.64
2019-04-21T13:31:36.249Z,54.84
2019-04-21T13:32:37.303Z,54.91
2019-04-21T13:33:35.878Z,54.96
2019-04-21T13:34:36.042Z,54.84
2019-04-21T13:35:37.169Z,54.69
2019-04-21T13:36:36.030Z,54.61
2019-04-21T13:37:37.303Z,54.70
2019-04-21T13:38:42.764Z,54.70
2019-04-21T13:40:04.849Z,54.64
2019-04-21T13:40:54.432Z,54.89
2019-04-21T13:41:51.884Z,55.26
2019-04-21T13:42:41.985Z,55.17
2019-04-21T13:43:37.163Z,55.05
2019-04-21T13:44:36.986Z,54.89
2019-04-21T13:45:36.150Z,54.81
2019-04-21T13:46:36.504Z,54.83
2019-04-21T13:47:36.543Z,54.88
2019-04-21T13:48:36.870Z,54.61
2019-04-21T13:49:37.041Z,54.64
2019-04-21T13:50:37.207Z,54.64
2019-04-21T13:51:36.080Z,54.88
2019-04-21T13:52:36.527Z,55.05
2019-04-21T13:53:36.277Z,55.37
2019-04-21T13:54:35.817Z,55.76
2019-04-21T13:55:37.057Z,56.12
2019-04-21T13:56:36.314Z,55.99
2019-04-21T13:57:36.585Z,56.03
2019-04-21T13:58:35.738Z,55.85
2019-04-21T13:59:36.333Z,55.76
2019-04-21T14:00:35.906Z,55.65
2019-04-21T14:01:35.974Z,55.83
2019-04-21T14:02:36.575Z,55.68
2019-04-21T14:03:35.725Z,55.65
2019-04-21T14:04:35.710Z,55.54
2019-04-21T14:05:36.204Z,55.66